createdAt,value
2018-02-24T00:00:35.094Z,4.27
2018-02-24T00:03:02.645Z,4.37
2018-02-24T00:05:30.198Z,4.80
2018-02-24T00:07:57.745Z,4.93
2018-02-24T00:10:35.965Z,4.23
2018-02-24T00:13:03.537Z,4.20
2018-02-24T00:15:31.103Z,4.20
2018-02-24T00:17:58.672Z,4.17
2018-02-24T00:20:26.220Z,4.07
2018-02-24T00:23:12.685Z,4.50
2018-02-24T00:25:41.009Z,4.20
2018-02-24T00:28:09.918Z,4.70
2018-02-24T00:30:37.466Z,3.93
2018-02-24T00:33:05.077Z,4.53
2018-02-24T00:35:53.630Z,4.00
2018-02-24T00:38:22.606Z,4.27
2018-02-24T00:40:50.162Z,4.07
2018-02-24T00:43:17.713Z,4.80
2018-02-24T00:45:45.301Z,3.87
2018-02-24T00:48:13.632Z,4.40
2018-02-24T00:50:41.179Z,4.43
2018-02-24T00:53:08.747Z,4.30
2018-02-24T00:55:36.299Z,4.67
2018-02-24T00:58:03.863Z,4.03
2018-02-24T01:00:38.649Z,4.00
2018-02-24T01:03:06.957Z,4.53
2018-02-24T01:05:34.568Z,4.40
2018-02-24T01:08:02.143Z,4.40
2018-02-24T01:10:30.517Z,3.90
2018-02-24T01:13:16.294Z,4.53
2018-02-24T01:15:43.923Z,4.07
2018-02-24T01:18:11.479Z,4.47
2018-02-24T01:20:39.748Z,4.07
2018-02-24T01:23:07.316Z,4.17
2018-02-24T01:25:56.078Z,4.30
2018-02-24T01:28:23.655Z,4.33
2018-02-24T01:30:51.211Z,4.33
2018-02-24T01:33:18.748Z,4.17
2018-02-24T01:35:46.321Z,4.30
2018-02-24T01:38:13.868Z,4.30
2018-02-24T01:40:41.413Z,4.00
2018-02-24T01:43:08.992Z,4.10
2018-02-24T01:45:36.556Z,4.10
2018-02-24T01:48:04.088Z,3.93
2018-02-24T01:50:43.265Z,3.97
2018-02-24T01:53:10.815Z,4.03
2018-02-24T01:55:38.359Z,4.13
2018-02-24T01:58:05.910Z,4.00
2018-02-24T02:00:33.496Z,4.40
2018-02-24T02:03:19.020Z,4.20
2018-02-24T02:05:46.588Z,4.40
2018-02-24T02:08:14.887Z,4.37
2018-02-24T02:10:42.772Z,4.70
2018-02-24T02:13:10.321Z,3.70
2018-02-24T02:15:58.981Z,4.37
2018-02-24T02:18:26.547Z,4.20
2018-02-24T02:20:54.579Z,3.97
2018-02-24T02:23:22.880Z,4.57
2018-02-24T02:25:50.439Z,4.10
2018-02-24T02:28:17.984Z,4.53
2018-02-24T02:30:46.291Z,4.37
2018-02-24T02:33:13.849Z,4.43
2018-02-24T02:35:41.401Z,3.87
2018-02-24T02:38:08.934Z,4.40
2018-02-24T02:40:36.505Z,4.00
2018-02-24T02:43:04.834Z,4.37
2018-02-24T02:45:32.384Z,4.20
2018-02-24T02:47:59.950Z,4.33
2018-02-24T02:50:27.509Z,4.60
2018-02-24T02:52:55.068Z,4.17
2018-02-24T02:55:35.485Z,4.20
2018-02-24T02:58:03.802Z,4.83
2018-02-24T03:00:31.396Z,4.40
2018-02-24T03:02:58.955Z,4.20
2018-02-24T03:05:26.511Z,4.87
2018-02-24T03:07:54.059Z,4.17
2018-02-24T03:10:21.624Z,4.23
2018-02-24T03:12:49.185Z,4.40
2018-02-24T03:15:16.739Z,4.10
2018-02-24T03:17:44.316Z,4.00
2018-02-24T03:20:20.052Z,4.00
2018-02-24T03:22:47.634Z,4.40
2018-02-24T03:25:15.183Z,4.20
2018-02-24T03:27:42.738Z,4.77
2018-02-24T03:30:10.298Z,4.50
2018-02-24T03:32:37.848Z,4.87
2018-02-24T03:35:12.683Z,4.50
2018-02-24T03:37:40.233Z,4.60
2018-02-24T03:40:07.850Z,4.17
2018-02-24T03:42:36.187Z,4.60
2018-02-24T03:45:03.737Z,4.10
2018-02-24T03:47:31.286Z,4.30
2018-02-24T03:49:59.033Z,5.00
2018-02-24T03:52:26.590Z,4.30
2018-02-24T03:54:54.901Z,4.07
2018-02-24T03:57:22.470Z,4.67
2018-02-24T03:59:57.980Z,4.70
2018-02-24T04:02:25.548Z,4.70
2018-02-24T04:04:53.098Z,4.70
2018-02-24T04:07:21.410Z,4.40
2018-02-24T04:09:48.990Z,4.20
2018-02-24T04:12:16.556Z,4.93
2018-02-24T04:14:47.992Z,5.00
2018-02-24T04:17:15.559Z,4.67
2018-02-24T04:19:43.152Z,4.90
2018-02-24T04:22:11.485Z,4.20
2018-02-24T04:24:39.091Z,4.50
2018-02-24T04:27:06.637Z,4.80
2018-02-24T04:29:34.179Z,4.43
2018-02-24T04:32:01.736Z,4.20
2018-02-24T04:34:29.277Z,4.60
2018-02-24T04:36:56.838Z,4.30
2018-02-24T04:39:24.408Z,4.30
2018-02-24T04:41:51.963Z,5.10
2018-02-24T04:44:19.507Z,4.27
2018-02-24T04:46:47.079Z,4.23
2018-02-24T04:49:14.627Z,4.27
2018-02-24T04:51:42.183Z,4.70
2018-02-24T04:54:17.041Z,4.20
2018-02-24T04:56:44.590Z,4.17
2018-02-24T04:59:12.134Z,4.57
2018-02-24T05:01:39.694Z,4.27
2018-02-24T05:04:07.253Z,4.20
2018-02-24T05:07:02.117Z,4.40
2018-02-24T05:09:29.659Z,4.20
2018-02-24T05:11:57.482Z,4.23
2018-02-24T05:14:25.038Z,4.43
2018-02-24T05:16:52.587Z,4.53
2018-02-24T05:19:20.901Z,4.10
2018-02-24T05:21:48.468Z,4.07
2018-02-24T05:24:16.012Z,4.13
2018-02-24T05:26:43.566Z,4.10
2018-02-24T05:29:11.120Z,4.07
2018-02-24T05:31:50.021Z,4.43
2018-02-24T05:34:17.589Z,4.53
2018-02-24T05:36:45.904Z,4.30
2018-02-24T05:39:13.449Z,4.60
2018-02-24T05:41:41.014Z,3.73
2018-02-24T05:44:29.785Z,4.23
2018-02-24T05:46:57.346Z,4.03
2018-02-24T05:49:24.901Z,4.40
2018-02-24T05:51:52.480Z,4.07
2018-02-24T05:54:20.050Z,4.20
2018-02-24T05:57:08.969Z,4.20
2018-02-24T05:59:36.546Z,4.27
2018-02-24T06:02:04.094Z,4.27
2018-02-24T06:04:31.639Z,4.70
2018-02-24T06:06:59.285Z,4.43
2018-02-24T06:09:26.898Z,4.60
2018-02-24T06:11:54.458Z,4.77
2018-02-24T06:14:22.032Z,4.70
2018-02-24T06:16:49.579Z,4.60
2018-02-24T06:19:17.128Z,4.53
2018-02-24T06:21:52.601Z,4.47
2018-02-24T06:24:20.160Z,4.40
2018-02-24T06:26:48.477Z,4.77
2018-02-24T06:29:16.800Z,4.90
2018-02-24T06:31:44.359Z,5.00
2018-02-24T06:34:32.657Z,5.03
2018-02-24T06:37:00.953Z,5.00
2018-02-24T06:39:28.503Z,4.77
2018-02-24T06:41:56.857Z,4.73
2018-02-24T06:44:24.417Z,4.93
2018-02-24T06:47:08.800Z,4.93
2018-02-24T06:49:37.110Z,4.70
2018-02-24T06:52:05.018Z,4.70
2018-02-24T06:54:32.757Z,4.73
2018-02-24T06:57:00.298Z,4.63
2018-02-24T06:59:27.839Z,4.60
2018-02-24T07:01:56.174Z,5.20
2018-02-24T07:04:23.719Z,5.13
2018-02-24T07:06:51.262Z,5.60
2018-02-24T07:09:18.818Z,5.57
2018-02-24T07:11:54.305Z,5.00
2018-02-24T07:14:21.874Z,4.97
2018-02-24T07:16:49.477Z,5.57
2018-02-24T07:19:17.027Z,4.67
2018-02-24T07:21:44.603Z,4.77
2018-02-24T07:24:33.768Z,5.47
2018-02-24T07:27:01.303Z,5.23
2018-02-24T07:29:29.673Z,5.00
2018-02-24T07:31:58.027Z,4.70
2018-02-24T07:34:26.351Z,5.40
2018-02-24T07:37:11.483Z,4.67
2018-02-24T07:39:39.031Z,5.03
2018-02-24T07:42:07.552Z,5.90
2018-02-24T07:44:35.854Z,5.43
2018-02-24T07:47:03.421Z,5.17
2018-02-24T07:49:30.986Z,5.43
2018-02-24T07:51:58.530Z,5.37
2018-02-24T07:54:26.096Z,5.57
2018-02-24T07:56:53.640Z,5.50
2018-02-24T07:59:21.934Z,5.30
2018-02-24T08:01:57.223Z,5.27
2018-02-24T08:04:24.806Z,5.63
2018-02-24T08:06:52.367Z,5.20
2018-02-24T08:09:20.707Z,5.60
2018-02-24T08:11:48.267Z,5.27
2018-02-24T08:14:37.411Z,5.37
2018-02-24T08:17:04.977Z,6.07
2018-02-24T08:19:32.559Z,5.30
2018-02-24T08:22:00.966Z,5.83
2018-02-24T08:24:28.526Z,5.87
2018-02-24T08:27:17.598Z,5.40
2018-02-24T08:29:45.143Z,5.80
2018-02-24T08:32:12.739Z,5.57
2018-02-24T08:34:41.072Z,5.53
2018-02-24T08:37:08.663Z,5.97
2018-02-24T08:39:36.982Z,5.83
2018-02-24T08:42:04.536Z,6.17
2018-02-24T08:44:32.092Z,5.43
2018-02-24T08:46:59.642Z,6.13
2018-02-24T08:49:27.203Z,5.73
2018-02-24T08:52:02.385Z,5.50
2018-02-24T08:54:29.937Z,6.10
2018-02-24T08:56:57.494Z,6.03
2018-02-24T08:59:25.056Z,6.47
2018-02-24T09:05:35.406Z,6.10
2018-02-24T09:08:02.961Z,6.13
2018-02-24T09:13:53.293Z,6.07
2018-02-24T09:16:20.851Z,6.60
2018-02-24T09:22:09.750Z,6.17
2018-02-24T09:24:37.309Z,5.73
2018-02-24T09:30:26.518Z,6.77
2018-02-24T09:32:54.065Z,7.27
2018-02-24T09:35:21.620Z,7.10
2018-02-24T09:41:12.255Z,6.50
2018-02-24T09:44:07.894Z,6.13
2018-02-24T09:47:10.119Z,6.20
2018-02-24T09:53:12.520Z,6.53
2018-02-24T09:55:40.069Z,5.93
2018-02-24T09:58:35.664Z,6.43
2018-02-24T10:01:32.525Z,6.37
2018-02-24T10:04:00.884Z,6.67
2018-02-24T10:09:53.536Z,6.13
2018-02-24T10:12:21.123Z,5.80
2018-02-24T10:14:48.671Z,6.60
2018-02-24T10:18:04.949Z,5.40
2018-02-24T10:20:32.516Z,6.47
2018-02-24T10:23:00.058Z,6.20
2018-02-24T10:25:27.618Z,5.97
2018-02-24T10:28:30.851Z,5.90
2018-02-24T10:30:58.403Z,5.80
2018-02-24T10:36:48.714Z,5.83
2018-02-24T10:39:16.263Z,5.70
2018-02-24T10:42:05.279Z,5.77
2018-02-24T10:44:32.816Z,5.27
2018-02-24T10:47:01.982Z,5.70
2018-02-24T10:49:29.545Z,5.77
2018-02-24T10:51:57.085Z,5.53
2018-02-24T10:54:24.645Z,5.60
2018-02-24T10:57:33.973Z,5.80
2018-02-24T11:00:01.531Z,5.70
2018-02-24T11:02:29.075Z,5.67
2018-02-24T11:08:19.197Z,5.97
2018-02-24T11:10:46.752Z,5.10
2018-02-24T11:16:36.098Z,5.97
2018-02-24T11:19:03.657Z,6.13
2018-02-24T11:24:52.877Z,5.43
2018-02-24T11:27:21.252Z,6.00
2018-02-24T11:29:48.809Z,5.53
2018-02-24T11:33:00.970Z,5.87
2018-02-24T11:35:28.521Z,5.90
2018-02-24T11:37:56.079Z,6.23
2018-02-24T11:40:23.666Z,5.70
2018-02-24T11:43:27.595Z,6.20
2018-02-24T11:46:08.545Z,5.50
2018-02-24T11:48:36.087Z,6.13
2018-02-24T11:54:33.256Z,5.03
2018-02-24T11:57:43.177Z,5.30
2018-02-24T12:00:10.752Z,5.17
2018-02-24T12:02:39.077Z,5.90
2018-02-24T12:08:27.668Z,5.87
2018-02-24T12:14:26.993Z,5.17
2018-02-24T12:20:42.078Z,5.63
2018-02-24T12:26:58.510Z,4.70
2018-02-24T12:29:26.071Z,5.43
2018-02-24T12:35:18.244Z,5.17
2018-02-24T12:41:07.441Z,4.97
2018-02-24T12:43:34.998Z,5.77
2018-02-24T12:46:02.583Z,5.40
2018-02-24T12:48:30.937Z,5.07
2018-02-24T12:51:49.847Z,5.70
2018-02-24T12:54:17.403Z,4.80
2018-02-24T13:00:14.096Z,4.87
2018-02-24T13:02:41.678Z,5.00
2018-02-24T13:11:55.108Z,5.20
2018-02-24T13:18:05.510Z,5.10
2018-02-24T13:20:33.064Z,4.73
2018-02-24T13:23:08.104Z,5.27
2018-02-24T13:25:35.667Z,4.80
2018-02-24T13:31:25.259Z,4.87
2018-02-24T13:37:14.250Z,4.70
2018-02-24T13:39:41.827Z,4.57
2018-02-24T13:42:09.390Z,4.73
2018-02-24T13:48:09.626Z,5.23
2018-02-24T13:57:18.939Z,5.10
2018-02-24T14:06:29.060Z,5.00
2018-02-24T14:09:04.376Z,5.10
2018-02-24T14:11:31.945Z,4.60
2018-02-24T14:13:59.494Z,4.77
2018-02-24T14:16:27.043Z,4.47
2018-02-24T14:18:54.613Z,4.27
2018-02-24T14:21:32.913Z,4.70
2018-02-24T14:24:00.490Z,4.40
2018-02-24T14:26:28.034Z,4.77
2018-02-24T14:28:55.581Z,4.50
2018-02-24T14:31:23.931Z,4.77
2018-02-24T14:33:52.260Z,4.30
2018-02-24T14:36:19.874Z,4.90
2018-02-24T14:38:48.203Z,4.57
2018-02-24T14:41:15.812Z,4.80
2018-02-24T14:43:43.382Z,5.33
2018-02-24T14:46:11.717Z,4.40
2018-02-24T14:48:39.290Z,4.60
2018-02-24T14:51:06.845Z,4.83
2018-02-24T14:53:34.386Z,5.03
2018-02-24T14:56:01.920Z,4.10
2018-02-24T14:58:29.483Z,4.53
2018-02-24T15:00:57.045Z,4.40
2018-02-24T15:03:24.588Z,4.10
2018-02-24T15:06:04.014Z,4.40
2018-02-24T15:08:32.320Z,4.97
2018-02-24T15:10:59.879Z,4.70
2018-02-24T15:13:27.452Z,5.10
2018-02-24T15:15:56.261Z,5.10
2018-02-24T15:18:23.817Z,5.10
2018-02-24T15:20:51.387Z,4.93
2018-02-24T15:23:18.926Z,4.40
2018-02-24T15:25:46.481Z,4.43
2018-02-24T15:28:14.060Z,4.63
2018-02-24T15:30:41.612Z,4.17
2018-02-24T15:33:09.159Z,4.37
2018-02-24T15:35:36.731Z,4.73
2018-02-24T15:38:05.079Z,4.30
2018-02-24T15:40:33.386Z,5.30
2018-02-24T15:43:00.947Z,4.90
2018-02-24T15:45:28.513Z,4.47
2018-02-24T15:47:56.072Z,4.40
2018-02-24T15:50:23.639Z,4.37
2018-02-24T15:52:51.195Z,4.33
2018-02-24T15:55:18.763Z,4.00
2018-02-24T15:57:46.339Z,4.67
2018-02-24T16:00:13.887Z,4.27
2018-02-24T16:02:41.427Z,4.63
2018-02-24T16:05:09.004Z,4.70
2018-02-24T16:07:36.536Z,4.47
2018-02-24T16:10:04.089Z,4.17
2018-02-24T16:12:31.652Z,4.60
2018-02-24T16:14:59.231Z,4.47
2018-02-24T16:17:26.773Z,4.07
2018-02-24T16:19:54.341Z,4.17
2018-02-24T16:22:21.890Z,4.40
2018-02-24T16:24:49.432Z,4.17
2018-02-24T16:27:17.782Z,4.53
2018-02-24T16:29:45.339Z,4.40
2018-02-24T16:32:12.901Z,4.10
2018-02-24T16:34:40.472Z,4.03
2018-02-24T16:37:19.012Z,4.43
2018-02-24T16:39:47.339Z,4.40
2018-02-24T16:42:15.664Z,4.07
2018-02-24T16:44:43.975Z,4.10
2018-02-24T16:47:11.535Z,3.80
2018-02-24T16:49:39.078Z,3.43
2018-02-24T16:52:07.404Z,3.90
2018-02-24T16:54:34.968Z,4.00
2018-02-24T16:57:02.515Z,4.10
2018-02-24T16:59:30.081Z,4.20
2018-02-24T17:01:57.659Z,4.10
2018-02-24T17:04:25.237Z,4.17
2018-02-24T17:06:52.781Z,3.60
2018-02-24T17:09:20.363Z,4.07
2018-02-24T17:11:47.919Z,3.80
2018-02-24T17:14:15.466Z,4.00
2018-02-24T17:16:57.589Z,3.40
2018-02-24T17:19:25.911Z,3.57
2018-02-24T17:21:53.469Z,3.47
2018-02-24T17:24:21.049Z,3.70
2018-02-24T17:26:48.594Z,4.10
2018-02-24T17:29:16.150Z,3.90
2018-02-24T17:31:43.715Z,3.90
2018-02-24T17:34:11.257Z,4.27
2018-02-24T17:36:38.803Z,3.70
2018-02-24T17:39:07.132Z,3.50
2018-02-24T17:41:34.678Z,3.50
2018-02-24T17:44:02.231Z,3.70
2018-02-24T17:46:29.792Z,3.60
2018-02-24T17:48:57.353Z,3.57
2018-02-24T17:51:24.908Z,3.30
2018-02-24T17:53:52.499Z,3.70
2018-02-24T17:56:20.058Z,3.40
2018-02-24T17:58:47.600Z,3.50
2018-02-24T18:01:15.175Z,3.33
2018-02-24T18:03:42.737Z,3.60
2018-02-24T18:06:25.846Z,3.53
2018-02-24T18:08:53.421Z,3.37
2018-02-24T18:11:21.048Z,3.50
2018-02-24T18:13:48.609Z,3.20
2018-02-24T18:16:16.986Z,3.40
2018-02-24T18:18:44.542Z,3.20
2018-02-24T18:21:12.876Z,3.33
2018-02-24T18:23:40.442Z,3.57
2018-02-24T18:26:07.992Z,3.10
2018-02-24T18:28:35.543Z,2.90
2018-02-24T18:33:41.418Z,3.47
2018-02-24T18:36:09.739Z,3.20
2018-02-24T18:38:38.058Z,3.43
2018-02-24T18:41:05.640Z,3.30
2018-02-24T18:43:40.025Z,3.30
2018-02-24T18:46:07.593Z,2.90
2018-02-24T18:48:35.150Z,3.10
2018-02-24T18:51:02.689Z,3.47
2018-02-24T18:53:31.019Z,3.17
2018-02-24T18:55:58.573Z,3.17
2018-02-24T18:58:26.146Z,2.90
2018-02-24T19:00:53.714Z,3.10
2018-02-24T19:03:21.279Z,3.13
2018-02-24T19:05:48.835Z,3.17
2018-02-24T19:08:16.405Z,2.93
2018-02-24T19:10:47.100Z,3.30
2018-02-24T19:13:14.643Z,2.83
2018-02-24T19:15:42.242Z,3.20
2018-02-24T19:18:09.783Z,3.30
2018-02-24T19:20:37.315Z,3.43
2018-02-24T19:23:04.886Z,3.27
2018-02-24T19:25:39.435Z,3.00
2018-02-24T19:28:06.997Z,3.33
2018-02-24T19:30:34.546Z,3.27
2018-02-24T19:33:02.124Z,3.17
2018-02-24T19:35:29.692Z,3.00
2018-02-24T19:38:18.955Z,3.43
2018-02-24T19:40:46.507Z,3.40
2018-02-24T19:43:14.058Z,2.97
2018-02-24T19:45:41.611Z,3.70
2018-02-24T19:48:09.178Z,2.80
2018-02-24T19:50:36.737Z,2.93
2018-02-24T19:53:04.293Z,3.47
2018-02-24T19:55:31.833Z,3.27
2018-02-24T19:58:00.146Z,2.90
2018-02-24T20:00:27.692Z,2.87
2018-02-24T20:03:03.160Z,3.10
2018-02-24T20:05:30.706Z,3.00
2018-02-24T20:07:58.250Z,3.30
2018-02-24T20:10:25.818Z,2.77
2018-02-24T20:12:53.362Z,3.10
2018-02-24T20:15:42.106Z,3.10
2018-02-24T20:18:10.428Z,3.30
2018-02-24T20:20:38.014Z,3.20
2018-02-24T20:23:05.565Z,3.53
2018-02-24T20:25:33.126Z,3.20
2018-02-24T20:28:22.226Z,3.50
2018-02-24T20:30:50.540Z,3.17
2018-02-24T20:33:18.105Z,3.23
2018-02-24T20:35:45.691Z,3.20
2018-02-24T20:38:13.254Z,3.80
2018-02-24T20:40:40.829Z,3.57
2018-02-24T20:43:08.407Z,3.23
2018-02-24T20:45:36.712Z,3.40
2018-02-24T20:48:04.279Z,3.27
2018-02-24T20:50:31.866Z,3.40
2018-02-24T20:52:59.420Z,3.57
2018-02-24T20:55:26.957Z,2.77
2018-02-24T20:57:54.720Z,3.30
2018-02-24T21:00:22.305Z,3.53
2018-02-24T21:02:49.874Z,3.40
2018-02-24T21:05:17.450Z,3.03
2018-02-24T21:07:45.005Z,3.20
2018-02-24T21:10:13.483Z,3.30
2018-02-24T21:12:41.031Z,3.40
2018-02-24T21:15:08.851Z,3.60
2018-02-24T21:17:37.867Z,3.13
2018-02-24T21:20:05.464Z,3.53
2018-02-24T21:22:33.013Z,3.50
2018-02-24T21:25:00.565Z,2.87
2018-02-24T21:27:28.202Z,3.43
2018-02-24T21:29:55.710Z,3.50
2018-02-24T21:32:23.266Z,2.83
2018-02-24T21:34:50.911Z,2.90
2018-02-24T21:37:18.465Z,3.20
2018-02-24T21:39:46.034Z,3.10
2018-02-24T21:42:13.604Z,2.77
2018-02-24T21:44:41.155Z,3.03
2018-02-24T21:47:08.701Z,3.27
2018-02-24T21:49:36.256Z,2.80
2018-02-24T21:52:03.821Z,3.33
2018-02-24T21:54:31.387Z,2.80
2018-02-24T21:56:58.955Z,2.80
2018-02-24T21:59:39.638Z,2.93
2018-02-24T22:02:07.207Z,3.00
2018-02-24T22:04:35.544Z,2.70
2018-02-24T22:07:03.271Z,2.80
2018-02-24T22:09:30.833Z,3.07
2018-02-24T22:11:58.382Z,3.13
2018-02-24T22:14:25.929Z,2.53
2018-02-24T22:16:53.512Z,2.80
2018-02-24T22:19:21.059Z,2.57
2018-02-24T22:21:48.608Z,2.90
2018-02-24T22:24:16.179Z,3.00
2018-02-24T22:26:43.739Z,2.70
2018-02-24T22:29:11.290Z,2.87
2018-02-24T22:31:38.834Z,2.80
2018-02-24T22:34:06.382Z,2.50
2018-02-24T22:36:33.923Z,2.80
2018-02-24T22:39:01.489Z,2.73
2018-02-24T22:41:29.040Z,2.97
2018-02-24T22:43:57.355Z,3.13
2018-02-24T22:46:25.691Z,2.80
2018-02-24T22:48:59.921Z,2.70
2018-02-24T22:51:27.486Z,2.73
2018-02-24T22:53:55.040Z,3.00
2018-02-24T22:56:22.601Z,2.90
2018-02-24T22:58:50.934Z,2.40
2018-02-24T23:01:18.495Z,2.30
2018-02-24T23:03:46.041Z,2.60
2018-02-24T23:06:13.608Z,2.60
2018-02-24T23:08:41.151Z,2.70
2018-02-24T23:11:08.704Z,2.80
2018-02-24T23:13:36.257Z,2.83
2018-02-24T23:16:03.815Z,2.50
2018-02-24T23:18:52.772Z,2.67
2018-02-24T23:21:20.316Z,2.80
2018-02-24T23:23:48.688Z,2.80
2018-02-24T23:26:17.019Z,2.40
2018-02-24T23:28:44.571Z,2.63
2018-02-24T23:31:32.898Z,2.50
2018-02-24T23:34:00.476Z,2.60
2018-02-24T23:36:28.032Z,2.30
2018-02-24T23:38:56.006Z,2.30
2018-02-24T23:41:23.566Z,2.70
2018-02-24T23:43:51.120Z,2.30
2018-02-24T23:46:18.685Z,2.73
2018-02-24T23:48:46.236Z,2.50
2018-02-24T23:51:13.786Z,2.60
2018-02-24T23:53:41.334Z,2.50
2018-02-24T23:56:16.820Z,2.43
2018-02-24T23:58:44.390Z,2.60
